Spring Mountain Youth Camp, Nevada Weather observations

Data are for 60 minute period ending at time listed.
 Day   Time   Solar   Ave.   Ave.  Ave.  Vector  Max.   Baro.   Total    
  of    of     Rad.   Air    Rel.  Wind   Wind   Wind  Press.  Precip.   
Year   Day            Temp.  Hum.  Speed  Dir.   Gust                    
2016   (PST)  Kw/m2    F      %     mph   deg.    mph    mb.     in.     
-------------------------------------------------------------------------
  43    1:00   0.00   46.3    13    3.3    89     5.8   796.0    0.00 
  43    2:00   0.00   47.2    10    1.7    10     4.2   795.8    0.00 
  43    3:00   0.00   46.2    11    2.4   353     4.0   795.8    0.00 
  43    4:00   0.00   45.1     9    3.7    34     6.6   795.6    0.00 
  43    5:00   0.00   47.0     8    1.6    34     5.8   795.6    0.00 
  43    6:00   0.00   46.8     7    1.7    92     3.2   795.6    0.00 
  43    7:00   0.01   46.0     8    2.6    86     4.1   795.8    0.00 
  43    8:00   0.14   50.4     7    1.9    95     4.1   796.0    0.00 
  43    9:00   0.38   59.7     7    1.3   152     4.2   796.2    0.00 
  43   10:00   0.57   59.5     8    2.0   148     5.3   796.4    0.00 
  43   11:00   0.70   59.6    10    3.9   160     8.8   796.4    0.00 
  43   12:00   0.77   58.2    12    6.3   167    10.7   796.2    0.00 
  43   13:00   0.78   57.9    14    5.9   167    10.6   795.7    0.00 
  43   14:00   0.68   58.1    15    3.7   180    11.8   795.3    0.00 
  43   15:00   0.55   56.9    18    1.8   288     6.2   795.1    0.00 
  43   16:00   0.36   54.9    20    1.5   329     4.6   795.1    0.00 
  43   17:00   0.15   51.9    20    1.8   350     3.5   795.0    0.00 
  43   18:00   0.01   48.3    17    2.4    88     3.9   794.8    0.00 
  43   19:00   0.00   47.7    16    2.2   102     5.4   794.9    0.00 
  43   20:00   0.00   47.3     9    2.5    60     6.9   794.9    0.00 
  43   21:00   0.00   47.0     9    2.1   143     6.9   795.0    0.00 
  43   22:00   0.00   46.7     9    1.8   189    10.4   795.0    0.00 
  43   23:00   0.00   46.6     9    1.7   216     9.8   794.9    0.00 
  44    0:00   0.00   46.4     9    2.1   154     7.3   794.7    0.00 

Return to Spring Mountain Youth Camp graphs page.


Western Regional Climate Center,wrcc@dri.edu